createdAt,value
2017-04-14T00:00:39.770Z,0
2017-04-14T00:01:41.171Z,0
2017-04-14T00:02:42.418Z,0
2017-04-14T00:03:43.649Z,0
2017-04-14T00:04:44.913Z,0
2017-04-14T00:05:46.143Z,0
2017-04-14T00:06:47.451Z,0
2017-04-14T00:07:48.697Z,0
2017-04-14T00:08:49.939Z,0
2017-04-14T00:09:51.185Z,0
2017-04-14T00:10:52.414Z,0
2017-04-14T00:11:53.660Z,0
2017-04-14T00:12:54.902Z,0
2017-04-14T00:13:56.133Z,0
2017-04-14T00:14:57.471Z,0
2017-04-14T00:15:58.765Z,0
2017-04-14T00:16:59.990Z,0
2017-04-14T00:18:01.274Z,0
2017-04-14T00:19:02.535Z,0
2017-04-14T00:20:03.762Z,0
2017-04-14T00:21:05.050Z,0
2017-04-14T00:22:06.258Z,0
2017-04-14T00:23:07.499Z,0
2017-04-14T00:24:08.747Z,0
2017-04-14T00:25:09.984Z,0
2017-04-14T00:26:11.278Z,0
2017-04-14T00:27:12.569Z,0
2017-04-14T00:28:13.865Z,0
2017-04-14T00:29:15.088Z,0
2017-04-14T00:30:16.317Z,0
2017-04-14T00:31:17.584Z,0
2017-04-14T00:32:18.838Z,0
2017-04-14T00:33:20.072Z,0
2017-04-14T00:34:21.428Z,0
2017-04-14T00:35:22.666Z,0
2017-04-14T00:36:23.910Z,0
2017-04-14T00:37:25.247Z,0
2017-04-14T00:38:26.472Z,0
2017-04-14T00:39:27.702Z,0
2017-04-14T00:40:28.950Z,0
2017-04-14T00:41:30.174Z,0
2017-04-14T00:42:31.419Z,0
2017-04-14T00:43:32.671Z,0
2017-04-14T00:44:33.912Z,0
2017-04-14T00:45:35.135Z,0
2017-04-14T00:46:36.374Z,0
2017-04-14T00:47:37.609Z,0
2017-04-14T00:48:38.887Z,0
2017-04-14T00:49:40.121Z,0
2017-04-14T00:50:41.371Z,0
2017-04-14T00:51:42.606Z,0
2017-04-14T00:52:43.847Z,0
2017-04-14T00:53:45.104Z,0
2017-04-14T00:54:46.350Z,0
2017-04-14T00:55:47.639Z,0
2017-04-14T00:56:48.864Z,0
2017-04-14T00:57:50.109Z,0
2017-04-14T00:58:51.455Z,0
2017-04-14T00:59:52.690Z,0
2017-04-14T01:00:53.929Z,0
2017-04-14T01:01:55.169Z,0
2017-04-14T01:02:56.409Z,0
2017-04-14T01:03:57.644Z,0
2017-04-14T01:04:59.028Z,0
2017-04-14T01:06:00.187Z,0
2017-04-14T01:07:01.417Z,0
2017-04-14T01:08:02.654Z,0
2017-04-14T01:09:03.994Z,0
2017-04-14T01:10:05.231Z,0
2017-04-14T01:11:06.488Z,0
2017-04-14T01:12:07.708Z,0
2017-04-14T01:13:08.937Z,0
2017-04-14T01:14:10.210Z,0
2017-04-14T01:15:11.451Z,0
2017-04-14T01:16:12.674Z,0
2017-04-14T01:17:13.908Z,0
2017-04-14T01:18:15.146Z,0
2017-04-14T01:19:16.388Z,0
2017-04-14T01:20:17.633Z,0
2017-04-14T01:21:18.875Z,0
2017-04-14T01:22:20.114Z,0
2017-04-14T01:23:21.353Z,0
2017-04-14T01:24:22.592Z,0
2017-04-14T01:25:23.809Z,0
2017-04-14T01:26:25.037Z,0
2017-04-14T01:27:26.414Z,0
2017-04-14T01:28:27.623Z,0
2017-04-14T01:29:28.873Z,0
2017-04-14T01:30:30.098Z,0
2017-04-14T01:31:31.336Z,0
2017-04-14T01:32:32.577Z,0
2017-04-14T01:33:33.902Z,0
2017-04-14T01:34:35.170Z,0
2017-04-14T01:35:36.417Z,0
2017-04-14T01:36:37.651Z,0
2017-04-14T01:37:38.882Z,0
2017-04-14T01:38:40.138Z,0
2017-04-14T01:39:41.406Z,0
2017-04-14T01:40:42.695Z,0
2017-04-14T01:41:43.936Z,0
2017-04-14T01:42:45.211Z,0
2017-04-14T01:43:46.425Z,0
2017-04-14T01:44:47.655Z,0
2017-04-14T01:45:48.905Z,0
2017-04-14T01:46:50.276Z,0
2017-04-14T01:47:51.536Z,0
2017-04-14T01:48:52.774Z,0
2017-04-14T01:49:54.090Z,0
2017-04-14T01:50:55.339Z,0
2017-04-14T01:51:56.561Z,0
2017-04-14T01:52:57.791Z,0
2017-04-14T01:53:59.126Z,0
2017-04-14T01:55:00.390Z,0
2017-04-14T01:56:01.605Z,0
2017-04-14T01:57:02.917Z,0
2017-04-14T01:58:04.127Z,0
2017-04-14T01:59:05.479Z,0
2017-04-14T02:00:06.703Z,0
2017-04-14T02:01:07.937Z,0
2017-04-14T02:02:09.186Z,0
2017-04-14T02:03:10.422Z,0
2017-04-14T02:04:11.657Z,0
2017-04-14T02:05:12.916Z,0
2017-04-14T02:06:14.193Z,0
2017-04-14T02:07:15.447Z,0
2017-04-14T02:08:16.673Z,0
2017-04-14T02:09:17.894Z,0
2017-04-14T02:10:19.195Z,0
2017-04-14T02:11:20.474Z,0
2017-04-14T02:12:21.883Z,0
2017-04-14T02:13:23.144Z,0
2017-04-14T02:14:24.374Z,0
2017-04-14T02:15:25.617Z,0
2017-04-14T02:16:26.878Z,0
2017-04-14T02:17:28.136Z,0
2017-04-14T02:18:29.390Z,0
2017-04-14T02:19:30.678Z,0
2017-04-14T02:20:31.907Z,0
2017-04-14T02:21:33.177Z,0
2017-04-14T02:22:34.421Z,0
2017-04-14T02:23:35.729Z,0
2017-04-14T02:24:36.975Z,0
2017-04-14T02:25:38.234Z,0
2017-04-14T02:26:39.480Z,0
2017-04-14T02:27:40.705Z,0
2017-04-14T02:28:41.936Z,0
2017-04-14T02:29:43.182Z,0
2017-04-14T02:30:44.424Z,0
2017-04-14T02:31:45.671Z,0
2017-04-14T02:32:46.992Z,0
2017-04-14T02:33:48.225Z,0
2017-04-14T02:34:49.482Z,0
2017-04-14T02:35:50.833Z,0
2017-04-14T02:36:51.999Z,0
2017-04-14T02:37:53.267Z,0
2017-04-14T02:38:54.497Z,0
2017-04-14T02:39:55.750Z,0
2017-04-14T02:40:56.986Z,0
2017-04-14T02:41:58.279Z,0
2017-04-14T02:42:59.538Z,0
2017-04-14T02:44:00.887Z,0
2017-04-14T02:45:02.104Z,0
2017-04-14T02:46:03.336Z,0
2017-04-14T02:47:04.570Z,0
2017-04-14T02:48:05.819Z,0
2017-04-14T02:49:07.033Z,0
2017-04-14T02:50:08.295Z,0
2017-04-14T02:51:09.539Z,0
2017-04-14T02:52:10.859Z,0
2017-04-14T02:53:12.119Z,0
2017-04-14T02:54:13.342Z,0
2017-04-14T02:55:14.576Z,0
2017-04-14T02:56:15.847Z,0
2017-04-14T02:57:17.054Z,0
2017-04-14T02:58:18.286Z,0
2017-04-14T02:59:19.561Z,0
2017-04-14T03:00:20.790Z,0
2017-04-14T03:01:22.031Z,0
2017-04-14T03:02:23.256Z,0
2017-04-14T03:03:24.495Z,0
2017-04-14T03:04:25.746Z,0
2017-04-14T03:05:26.991Z,0
2017-04-14T03:06:28.230Z,0
2017-04-14T03:07:29.474Z,0
2017-04-14T03:08:31.032Z,0
2017-04-14T03:09:32.235Z,0
2017-04-14T03:10:33.439Z,0
2017-04-14T03:11:34.670Z,0
2017-04-14T03:12:35.900Z,0
2017-04-14T03:13:37.227Z,0
2017-04-14T03:14:38.452Z,0
2017-04-14T03:15:39.753Z,0
2017-04-14T03:16:41.022Z,0
2017-04-14T03:17:42.262Z,0
2017-04-14T03:18:43.494Z,0
2017-04-14T03:19:44.733Z,0
2017-04-14T03:20:45.964Z,0
2017-04-14T03:21:47.261Z,0
2017-04-14T03:22:48.494Z,0
2017-04-14T03:23:49.867Z,0
2017-04-14T03:24:51.097Z,0
2017-04-14T03:25:52.309Z,0
2017-04-14T03:26:53.608Z,0
2017-04-14T03:27:54.849Z,0
2017-04-14T03:28:56.079Z,0
2017-04-14T03:29:57.374Z,0
2017-04-14T03:30:58.586Z,0
2017-04-14T03:31:59.819Z,0
2017-04-14T03:33:01.176Z,0
2017-04-14T03:34:02.457Z,0
2017-04-14T03:35:03.753Z,0
2017-04-14T03:36:04.983Z,0
2017-04-14T03:37:06.218Z,0
2017-04-14T03:38:07.453Z,0
2017-04-14T03:39:08.693Z,0
2017-04-14T03:40:09.935Z,0
2017-04-14T03:41:11.218Z,0
2017-04-14T03:42:12.436Z,0
2017-04-14T03:43:13.677Z,0
2017-04-14T03:44:14.956Z,0
2017-04-14T03:45:16.192Z,0
2017-04-14T03:46:17.439Z,0
2017-04-14T03:47:18.759Z,0
2017-04-14T03:48:19.998Z,0
2017-04-14T03:49:21.263Z,0
2017-04-14T03:50:22.475Z,0
2017-04-14T03:51:23.711Z,0
2017-04-14T03:52:24.998Z,0
2017-04-14T03:53:26.209Z,0
2017-04-14T03:54:27.608Z,0
2017-04-14T03:55:28.885Z,0
2017-04-14T03:56:30.160Z,0
2017-04-14T03:57:31.425Z,0
2017-04-14T03:58:32.654Z,0
2017-04-14T03:59:33.913Z,0
2017-04-14T04:00:35.143Z,0
2017-04-14T04:01:36.375Z,0
2017-04-14T04:02:37.610Z,0
2017-04-14T04:03:38.843Z,0
2017-04-14T04:04:40.069Z,0
2017-04-14T04:05:41.299Z,0
2017-04-14T04:06:42.650Z,0
2017-04-14T04:07:43.921Z,0
2017-04-14T04:08:45.145Z,0
2017-04-14T04:09:46.427Z,0
2017-04-14T04:10:47.686Z,0
2017-04-14T04:11:48.903Z,0
2017-04-14T04:12:50.134Z,0
2017-04-14T04:13:51.475Z,0
2017-04-14T04:14:52.752Z,0
2017-04-14T04:15:53.979Z,0
2017-04-14T04:16:55.212Z,0
2017-04-14T04:17:56.446Z,0
2017-04-14T04:18:57.676Z,0
2017-04-14T04:19:58.917Z,0
2017-04-14T04:21:00.164Z,0
2017-04-14T04:22:01.387Z,0
2017-04-14T04:23:02.617Z,0
2017-04-14T04:24:03.846Z,0
2017-04-14T04:25:05.172Z,5
2017-04-14T04:26:06.398Z,5
2017-04-14T04:27:07.689Z,5
2017-04-14T04:28:09.016Z,5
2017-04-14T04:29:10.228Z,5
2017-04-14T04:30:11.514Z,5
2017-04-14T04:31:12.774Z,10
2017-04-14T04:32:13.989Z,10
2017-04-14T04:33:15.253Z,10
2017-04-14T04:34:16.492Z,10
2017-04-14T04:35:17.842Z,10
2017-04-14T04:36:19.069Z,15
2017-04-14T04:37:20.300Z,15
2017-04-14T04:38:21.538Z,15
2017-04-14T04:39:22.770Z,15
2017-04-14T04:40:24.000Z,20
2017-04-14T04:41:25.296Z,20
2017-04-14T04:42:26.534Z,25
2017-04-14T04:43:27.774Z,25
2017-04-14T04:44:29.144Z,25
2017-04-14T04:45:30.277Z,30
2017-04-14T04:46:31.528Z,30
2017-04-14T04:47:32.763Z,35
2017-04-14T04:48:34.000Z,35
2017-04-14T04:49:35.261Z,40
2017-04-14T04:50:36.518Z,40
2017-04-14T04:51:37.719Z,40
2017-04-14T04:52:38.959Z,45
2017-04-14T04:53:40.214Z,50
2017-04-14T04:54:41.444Z,50
2017-04-14T04:55:42.697Z,55
2017-04-14T04:56:43.919Z,55
2017-04-14T04:57:45.161Z,60
2017-04-14T04:58:46.395Z,60
2017-04-14T04:59:47.638Z,65
2017-04-14T05:00:49.004Z,65
2017-04-14T05:01:50.241Z,70
2017-04-14T05:02:51.500Z,75
2017-04-14T05:03:52.766Z,75
2017-04-14T05:04:53.962Z,80
2017-04-14T05:05:55.296Z,80
2017-04-14T05:06:56.548Z,85
2017-04-14T05:07:57.777Z,85
2017-04-14T05:08:59.028Z,90
2017-04-14T05:10:00.276Z,95
2017-04-14T05:11:01.542Z,100
2017-04-14T05:12:02.792Z,100
2017-04-14T05:13:04.022Z,95
2017-04-14T05:14:05.260Z,110
2017-04-14T05:15:06.501Z,110
2017-04-14T05:16:07.860Z,105
2017-04-14T05:17:09.079Z,120
2017-04-14T05:18:10.318Z,125
2017-04-14T05:19:11.557Z,125
2017-04-14T05:20:12.794Z,135
2017-04-14T05:21:14.161Z,155
2017-04-14T05:22:15.421Z,185
2017-04-14T05:23:16.645Z,215
2017-04-14T05:24:17.893Z,220
2017-04-14T05:25:19.125Z,205
2017-04-14T05:26:20.356Z,245
2017-04-14T05:27:21.605Z,260
2017-04-14T05:28:22.923Z,270
2017-04-14T05:29:24.150Z,280
2017-04-14T05:30:25.394Z,295
2017-04-14T05:31:26.829Z,285
2017-04-14T05:32:28.068Z,290
2017-04-14T05:33:29.301Z,310
2017-04-14T05:34:30.533Z,320
2017-04-14T05:35:31.795Z,335
2017-04-14T05:36:33.104Z,350
2017-04-14T05:37:34.517Z,350
2017-04-14T05:38:35.880Z,360
2017-04-14T05:39:37.126Z,365
2017-04-14T05:40:38.362Z,370
2017-04-14T05:41:39.597Z,375
2017-04-14T05:42:40.848Z,385
2017-04-14T05:43:42.083Z,395
2017-04-14T05:44:43.415Z,400
2017-04-14T05:45:44.665Z,400
2017-04-14T05:46:45.964Z,415
2017-04-14T05:47:47.269Z,420
2017-04-14T05:48:48.519Z,430
2017-04-14T05:49:49.767Z,435
2017-04-14T05:50:51.026Z,445
2017-04-14T05:51:52.319Z,455
2017-04-14T05:52:53.592Z,460
2017-04-14T05:53:54.847Z,470
2017-04-14T05:54:56.089Z,485
2017-04-14T05:55:57.428Z,490
2017-04-14T05:56:58.670Z,495
2017-04-14T05:57:59.939Z,505
2017-04-14T05:59:01.207Z,510
2017-04-14T06:00:02.435Z,520
2017-04-14T06:01:03.676Z,525
2017-04-14T06:02:05.048Z,530
2017-04-14T06:03:06.313Z,540
2017-04-14T06:04:07.554Z,545
2017-04-14T06:05:08.797Z,550
2017-04-14T06:06:10.049Z,555
2017-04-14T06:07:11.309Z,560
2017-04-14T06:08:12.670Z,565
2017-04-14T06:09:13.910Z,560
2017-04-14T06:10:15.156Z,575
2017-04-14T06:11:16.404Z,580
2017-04-14T06:12:17.645Z,580
2017-04-14T06:13:18.973Z,585
2017-04-14T06:14:20.166Z,595
2017-04-14T06:15:21.420Z,595
2017-04-14T06:16:22.664Z,610
2017-04-14T06:17:23.969Z,615
2017-04-14T06:18:25.209Z,620
2017-04-14T06:19:26.491Z,630
2017-04-14T06:20:27.750Z,630
2017-04-14T06:21:29.001Z,640
2017-04-14T06:22:30.238Z,665
2017-04-14T06:23:31.490Z,700
2017-04-14T06:24:32.756Z,725
2017-04-14T06:25:33.974Z,740
2017-04-14T06:26:35.330Z,755
2017-04-14T06:27:36.699Z,795
2017-04-14T06:28:37.942Z,795
2017-04-14T06:29:39.206Z,815
2017-04-14T06:30:40.448Z,840
2017-04-14T06:31:41.751Z,875
2017-04-14T06:32:42.996Z,890
2017-04-14T06:33:44.239Z,895
2017-04-14T06:34:45.497Z,900
2017-04-14T06:35:46.745Z,895
2017-04-14T06:36:47.988Z,920
2017-04-14T06:37:49.241Z,875
2017-04-14T06:38:50.484Z,795
2017-04-14T06:39:51.742Z,865
2017-04-14T06:40:52.997Z,915
2017-04-14T06:41:54.343Z,995
2017-04-14T06:42:55.671Z,995
2017-04-14T06:43:56.906Z,980
2017-04-14T06:44:58.182Z,1015
2017-04-14T06:45:59.462Z,1055
2017-04-14T06:47:00.716Z,1085
2017-04-14T06:48:02.025Z,1095
2017-04-14T06:49:03.293Z,1105
2017-04-14T06:50:04.521Z,895
2017-04-14T06:51:05.785Z,690
2017-04-14T06:52:07.234Z,495
2017-04-14T06:53:08.445Z,725
2017-04-14T06:54:09.822Z,700
2017-04-14T06:55:11.061Z,1145
2017-04-14T06:56:12.310Z,1170
2017-04-14T06:57:13.659Z,1190
2017-04-14T06:58:14.975Z,1115
2017-04-14T06:59:16.206Z,1275
2017-04-14T07:00:17.452Z,1365
2017-04-14T07:01:18.693Z,1440
2017-04-14T07:02:19.951Z,1470
2017-04-14T07:03:21.291Z,1465
2017-04-14T07:04:22.546Z,1440
2017-04-14T07:05:23.826Z,1375
2017-04-14T07:06:25.051Z,905
2017-04-14T07:07:26.318Z,380
2017-04-14T07:08:27.746Z,305
2017-04-14T07:09:29.001Z,280
2017-04-14T07:10:30.267Z,265
2017-04-14T07:11:31.539Z,270
2017-04-14T07:12:32.833Z,260
2017-04-14T07:13:34.078Z,260
2017-04-14T07:14:35.340Z,260
2017-04-14T07:15:36.658Z,260
2017-04-14T07:16:37.945Z,255
2017-04-14T07:17:39.183Z,255
2017-04-14T07:18:40.468Z,245
2017-04-14T07:19:41.726Z,245
2017-04-14T07:20:43.123Z,240
2017-04-14T07:21:44.380Z,240
2017-04-14T07:22:45.715Z,250
2017-04-14T07:23:46.924Z,255
2017-04-14T07:24:48.178Z,270
2017-04-14T07:25:49.435Z,280
2017-04-14T07:26:50.701Z,285
2017-04-14T07:27:51.934Z,290
2017-04-14T07:28:53.198Z,300
2017-04-14T07:29:54.538Z,305
2017-04-14T07:30:55.789Z,325
2017-04-14T07:31:57.064Z,345
2017-04-14T07:32:58.299Z,360
2017-04-14T07:33:59.554Z,370
2017-04-14T07:35:00.786Z,390
2017-04-14T07:36:02.102Z,400
2017-04-14T07:37:03.354Z,405
2017-04-14T07:38:04.588Z,400
2017-04-14T07:39:05.884Z,380
2017-04-14T07:40:07.133Z,380
2017-04-14T07:41:08.382Z,380
2017-04-14T07:42:09.619Z,375
2017-04-14T07:43:10.866Z,380
2017-04-14T07:44:12.111Z,390
2017-04-14T07:45:13.710Z,395
2017-04-14T07:46:14.973Z,380
2017-04-14T07:47:16.303Z,355
2017-04-14T07:48:17.595Z,325
2017-04-14T07:49:18.836Z,300
2017-04-14T07:50:20.075Z,290
2017-04-14T07:51:21.324Z,275
2017-04-14T07:52:22.563Z,275
2017-04-14T07:53:23.900Z,270
2017-04-14T07:54:25.122Z,270
2017-04-14T07:55:26.382Z,280
2017-04-14T07:56:27.665Z,275
2017-04-14T07:57:28.948Z,280
2017-04-14T07:58:30.223Z,285
2017-04-14T07:59:31.434Z,285
2017-04-14T08:00:32.785Z,285
2017-04-14T08:01:34.022Z,280
2017-04-14T08:02:35.310Z,280
2017-04-14T08:03:36.562Z,280
2017-04-14T08:04:37.811Z,280
2017-04-14T08:05:39.144Z,285
2017-04-14T08:06:40.381Z,290
2017-04-14T08:07:41.636Z,290
2017-04-14T08:08:42.867Z,295
2017-04-14T08:09:44.102Z,295
2017-04-14T08:10:45.461Z,285
2017-04-14T08:11:46.694Z,290
2017-04-14T08:12:47.935Z,295
2017-04-14T08:13:49.196Z,300
2017-04-14T08:14:50.423Z,295
2017-04-14T08:15:51.680Z,305
2017-04-14T08:16:52.923Z,300
2017-04-14T08:17:54.175Z,310
2017-04-14T08:18:55.421Z,300
2017-04-14T08:19:56.660Z,300
2017-04-14T08:20:57.903Z,295
2017-04-14T08:21:59.166Z,300
2017-04-14T08:23:00.408Z,305
2017-04-14T08:24:01.649Z,310
2017-04-14T08:25:02.898Z,310
2017-04-14T08:26:04.136Z,310
2017-04-14T08:27:05.472Z,315
2017-04-14T08:28:06.704Z,315
2017-04-14T08:29:07.948Z,315
2017-04-14T08:30:09.211Z,320
2017-04-14T08:31:10.458Z,320
2017-04-14T08:32:11.703Z,325
2017-04-14T08:33:12.942Z,325
2017-04-14T08:34:14.187Z,325
2017-04-14T08:35:15.460Z,320
2017-04-14T08:36:16.731Z,325
2017-04-14T08:37:18.052Z,320
2017-04-14T08:38:19.294Z,320
2017-04-14T08:39:20.561Z,320
2017-04-14T08:40:21.801Z,315
2017-04-14T08:41:23.134Z,315
2017-04-14T08:42:24.374Z,315
2017-04-14T08:43:25.616Z,315
2017-04-14T08:44:26.895Z,315
2017-04-14T08:45:28.153Z,310
2017-04-14T08:46:29.403Z,315
2017-04-14T08:47:30.616Z,325
2017-04-14T08:48:31.882Z,335
2017-04-14T08:49:33.182Z,340
2017-04-14T08:50:34.425Z,340
2017-04-14T08:51:35.672Z,340
2017-04-14T08:52:36.911Z,335
2017-04-14T08:53:38.162Z,335
2017-04-14T08:54:39.411Z,345
2017-04-14T08:55:40.708Z,340
2017-04-14T08:56:41.946Z,340
2017-04-14T08:57:43.186Z,335
2017-04-14T08:58:44.434Z,325
2017-04-14T08:59:45.728Z,330
2017-04-14T09:00:47.018Z,320
2017-04-14T09:01:48.398Z,310
2017-04-14T09:02:49.630Z,300
2017-04-14T09:03:50.870Z,300
2017-04-14T09:04:52.103Z,295
2017-04-14T09:05:53.403Z,290
2017-04-14T09:06:54.631Z,290
2017-04-14T09:07:55.888Z,285
2017-04-14T09:08:57.140Z,285
2017-04-14T09:09:58.398Z,275
2017-04-14T09:10:59.643Z,275
2017-04-14T09:12:00.869Z,275
2017-04-14T09:13:02.106Z,270
2017-04-14T09:14:03.356Z,255
2017-04-14T09:15:04.588Z,255
2017-04-14T09:16:05.838Z,260
2017-04-14T09:17:07.084Z,255
2017-04-14T09:18:08.322Z,260
2017-04-14T09:19:09.566Z,255
2017-04-14T09:20:10.947Z,250
2017-04-14T09:21:12.206Z,250
2017-04-14T09:22:13.449Z,255
2017-04-14T09:23:14.716Z,260
2017-04-14T09:24:16.003Z,260
2017-04-14T09:25:17.245Z,260
2017-04-14T09:26:18.473Z,255
2017-04-14T09:27:19.795Z,260
2017-04-14T09:28:21.155Z,255
2017-04-14T09:29:22.428Z,255
2017-04-14T09:30:23.661Z,255
2017-04-14T09:31:24.978Z,260
2017-04-14T09:32:26.225Z,250
2017-04-14T09:33:27.490Z,245
2017-04-14T09:34:28.737Z,240
2017-04-14T09:35:29.980Z,240
2017-04-14T09:36:31.241Z,240
2017-04-14T09:37:32.475Z,245
2017-04-14T09:38:33.727Z,250
2017-04-14T09:39:34.975Z,250
2017-04-14T09:40:36.270Z,255
2017-04-14T09:41:37.569Z,255
2017-04-14T09:42:38.797Z,255
2017-04-14T09:43:40.060Z,255
2017-04-14T09:44:41.306Z,265
2017-04-14T09:45:42.550Z,265
2017-04-14T09:46:43.770Z,265
2017-04-14T09:47:45.007Z,265
2017-04-14T09:48:46.236Z,255
2017-04-14T09:49:47.498Z,255
2017-04-14T09:50:48.726Z,250
2017-04-14T09:51:50.061Z,245
2017-04-14T09:52:51.292Z,245
2017-04-14T09:53:52.535Z,255
2017-04-14T09:54:53.810Z,260
2017-04-14T09:55:55.032Z,275
2017-04-14T09:56:56.283Z,290
2017-04-14T09:57:57.597Z,295
2017-04-14T09:58:58.838Z,295
2017-04-14T10:00:00.124Z,290
2017-04-14T10:01:01.445Z,280
2017-04-14T10:02:02.701Z,280
2017-04-14T10:03:03.933Z,275
2017-04-14T10:04:05.421Z,265
2017-04-14T10:05:06.664Z,255
2017-04-14T10:06:08.035Z,240
2017-04-14T10:07:09.250Z,230
2017-04-14T10:08:10.503Z,230
2017-04-14T10:09:11.776Z,225
2017-04-14T10:10:12.999Z,225
2017-04-14T10:11:14.259Z,225
2017-04-14T10:12:15.542Z,225
2017-04-14T10:13:16.793Z,230
2017-04-14T10:14:18.056Z,235
2017-04-14T10:15:19.293Z,235
2017-04-14T10:16:20.533Z,235
2017-04-14T10:17:21.766Z,235
2017-04-14T10:18:23.011Z,245
2017-04-14T10:19:24.244Z,250
2017-04-14T10:20:25.488Z,255
2017-04-14T10:21:26.719Z,255
2017-04-14T10:22:27.964Z,255
2017-04-14T10:23:29.245Z,265
2017-04-14T10:24:30.482Z,270
2017-04-14T10:25:31.815Z,270
2017-04-14T10:26:33.042Z,275
2017-04-14T10:27:34.275Z,280
2017-04-14T10:28:35.578Z,285
2017-04-14T10:29:36.793Z,285
2017-04-14T10:30:38.068Z,285
2017-04-14T10:31:39.329Z,285
2017-04-14T10:32:40.579Z,290
2017-04-14T10:33:41.848Z,300
2017-04-14T10:34:43.058Z,300
2017-04-14T10:35:44.305Z,300
2017-04-14T10:36:45.546Z,295
2017-04-14T10:37:46.819Z,295
2017-04-14T10:38:48.093Z,290
2017-04-14T10:39:49.319Z,290
2017-04-14T10:40:50.558Z,290
2017-04-14T10:41:51.794Z,285
2017-04-14T10:42:53.055Z,295
2017-04-14T10:43:54.415Z,310
2017-04-14T10:44:55.662Z,315
2017-04-14T10:45:56.911Z,320
2017-04-14T10:46:58.154Z,330
2017-04-14T10:47:59.416Z,345
2017-04-14T10:49:00.681Z,360
2017-04-14T10:50:01.933Z,375
2017-04-14T10:51:03.157Z,385
2017-04-14T10:52:04.393Z,400
2017-04-14T10:53:05.839Z,400
2017-04-14T10:54:07.123Z,390
2017-04-14T10:55:08.371Z,385
2017-04-14T10:56:09.723Z,385
2017-04-14T10:57:10.964Z,385
2017-04-14T10:58:12.218Z,380
2017-04-14T10:59:13.510Z,370
2017-04-14T11:00:14.753Z,365
2017-04-14T11:01:15.989Z,365
2017-04-14T11:02:17.480Z,370
2017-04-14T11:03:18.754Z,380
2017-04-14T11:04:20.003Z,385
2017-04-14T11:05:21.265Z,385
2017-04-14T11:06:22.480Z,385
2017-04-14T11:07:23.783Z,380
2017-04-14T11:08:25.040Z,365
2017-04-14T11:09:26.277Z,350
2017-04-14T11:10:27.551Z,340
2017-04-14T11:11:28.789Z,330
2017-04-14T11:12:30.144Z,320
2017-04-14T11:13:31.395Z,310
2017-04-14T11:14:32.624Z,305
2017-04-14T11:15:33.881Z,305
2017-04-14T11:16:35.120Z,310
2017-04-14T11:17:36.351Z,330
2017-04-14T11:18:37.632Z,360
2017-04-14T11:19:38.982Z,390
2017-04-14T11:20:40.214Z,425
2017-04-14T11:21:41.493Z,460
2017-04-14T11:22:42.732Z,470
2017-04-14T11:23:43.973Z,470
2017-04-14T11:24:45.299Z,470
2017-04-14T11:25:46.552Z,470
2017-04-14T11:26:47.769Z,465
2017-04-14T11:27:49.049Z,465
2017-04-14T11:28:50.271Z,465
2017-04-14T11:29:51.523Z,465
2017-04-14T11:30:52.783Z,455
2017-04-14T11:31:54.016Z,450
2017-04-14T11:32:55.273Z,450
2017-04-14T11:33:56.502Z,450
2017-04-14T11:34:57.744Z,445
2017-04-14T11:35:58.998Z,450
2017-04-14T11:37:00.235Z,460
2017-04-14T11:38:01.486Z,465
2017-04-14T11:39:02.744Z,470
2017-04-14T11:40:03.978Z,465
2017-04-14T11:41:05.277Z,455
2017-04-14T11:42:06.515Z,460
2017-04-14T11:43:07.789Z,450
2017-04-14T11:44:09.030Z,445
2017-04-14T11:45:10.311Z,440
2017-04-14T11:46:11.583Z,435
2017-04-14T11:47:12.825Z,440
2017-04-14T11:48:14.067Z,435
2017-04-14T11:49:15.349Z,430
2017-04-14T11:50:16.568Z,435
2017-04-14T11:51:17.831Z,440
2017-04-14T11:52:19.178Z,445
2017-04-14T11:53:20.416Z,460
2017-04-14T11:54:21.654Z,465
2017-04-14T11:55:22.902Z,465
2017-04-14T11:56:24.164Z,480
2017-04-14T11:57:25.473Z,495
2017-04-14T11:58:26.714Z,505
2017-04-14T11:59:27.957Z,505
2017-04-14T12:00:29.208Z,485
2017-04-14T12:01:30.458Z,450
2017-04-14T12:02:31.717Z,440
2017-04-14T12:03:33.030Z,455
2017-04-14T12:04:34.344Z,490
2017-04-14T12:05:35.688Z,545
2017-04-14T12:06:37.020Z,580
2017-04-14T12:07:38.348Z,595
2017-04-14T12:08:39.593Z,590
2017-04-14T12:09:40.922Z,615
2017-04-14T12:10:42.182Z,635
2017-04-14T12:11:43.458Z,630
2017-04-14T12:12:44.705Z,645
2017-04-14T12:13:45.951Z,640
2017-04-14T12:14:47.234Z,625
2017-04-14T12:15:48.494Z,625
2017-04-14T12:16:49.886Z,595
2017-04-14T12:17:51.124Z,570
2017-04-14T12:18:52.365Z,540
2017-04-14T12:19:53.606Z,530
2017-04-14T12:20:54.841Z,520
2017-04-14T12:21:56.183Z,530
2017-04-14T12:22:57.421Z,540
2017-04-14T12:23:58.664Z,555
2017-04-14T12:25:00.065Z,530
2017-04-14T12:26:01.367Z,560
2017-04-14T12:27:02.599Z,580
2017-04-14T12:28:03.896Z,585
2017-04-14T12:29:05.279Z,590
2017-04-14T12:30:06.532Z,585
2017-04-14T12:31:07.785Z,570
2017-04-14T12:32:09.026Z,560
2017-04-14T12:33:10.279Z,555
2017-04-14T12:34:11.532Z,555
2017-04-14T12:35:12.775Z,535
2017-04-14T12:36:14.029Z,510
2017-04-14T12:37:15.269Z,505
2017-04-14T12:38:16.508Z,460
2017-04-14T12:39:17.765Z,415
2017-04-14T12:40:19.032Z,405
2017-04-14T12:41:20.254Z,385
2017-04-14T12:42:21.493Z,355
2017-04-14T12:43:22.747Z,320
2017-04-14T12:44:24.003Z,315
2017-04-14T12:45:25.238Z,320
2017-04-14T12:46:26.502Z,315
2017-04-14T12:47:27.763Z,320
2017-04-14T12:48:29.108Z,315
2017-04-14T12:49:30.428Z,290
2017-04-14T12:50:31.739Z,290
2017-04-14T12:51:32.983Z,290
2017-04-14T12:52:34.276Z,285
2017-04-14T12:53:35.586Z,285
2017-04-14T12:54:36.861Z,300
2017-04-14T12:55:38.173Z,330
2017-04-14T12:56:39.417Z,350
2017-04-14T12:57:40.679Z,350
2017-04-14T12:58:41.925Z,365
2017-04-14T12:59:43.268Z,350
2017-04-14T13:00:44.521Z,340
2017-04-14T13:01:45.788Z,335
2017-04-14T13:02:47.015Z,320
2017-04-14T13:03:48.256Z,315
2017-04-14T13:04:49.615Z,300
2017-04-14T13:05:50.868Z,280
2017-04-14T13:06:52.147Z,260
2017-04-14T13:07:53.386Z,260
2017-04-14T13:08:54.631Z,245
2017-04-14T13:09:55.982Z,240
2017-04-14T13:10:57.270Z,250
2017-04-14T13:11:58.733Z,245
2017-04-14T13:12:59.983Z,235
2017-04-14T13:14:01.227Z,230
2017-04-14T13:15:02.476Z,230
2017-04-14T13:16:03.726Z,230
2017-04-14T13:17:04.996Z,225
2017-04-14T13:18:06.252Z,220
2017-04-14T13:19:07.531Z,205
2017-04-14T13:20:08.748Z,205
2017-04-14T13:21:09.983Z,215
2017-04-14T13:22:11.251Z,230
2017-04-14T13:23:12.539Z,230
2017-04-14T13:24:13.808Z,215
2017-04-14T13:25:15.077Z,190
2017-04-14T13:26:16.338Z,185
2017-04-14T13:27:17.669Z,190
2017-04-14T13:28:18.913Z,205
2017-04-14T13:29:20.168Z,220
2017-04-14T13:30:21.425Z,240
2017-04-14T13:31:22.644Z,250
2017-04-14T13:32:23.900Z,255
2017-04-14T13:33:25.146Z,250
2017-04-14T13:34:26.418Z,255
2017-04-14T13:35:27.713Z,260
2017-04-14T13:36:28.969Z,270
2017-04-14T13:37:30.230Z,260
2017-04-14T13:38:31.504Z,255
2017-04-14T13:39:32.726Z,250
2017-04-14T13:40:33.967Z,250
2017-04-14T13:41:35.226Z,260
2017-04-14T13:42:36.465Z,260
2017-04-14T13:43:37.789Z,265
2017-04-14T13:44:39.083Z,255
2017-04-14T13:45:40.303Z,255
2017-04-14T13:46:41.619Z,255
2017-04-14T13:47:42.848Z,245
2017-04-14T13:48:44.271Z,235
2017-04-14T13:49:45.570Z,235
2017-04-14T13:50:46.817Z,235
2017-04-14T13:51:48.055Z,235
2017-04-14T13:52:49.386Z,235
2017-04-14T13:53:50.645Z,235
2017-04-14T13:54:51.907Z,250
2017-04-14T13:55:53.175Z,255
2017-04-14T13:56:54.411Z,255
2017-04-14T13:57:55.762Z,240
2017-04-14T13:58:57.000Z,235
2017-04-14T13:59:58.315Z,240
2017-04-14T14:00:59.549Z,235
2017-04-14T14:02:00.802Z,220
2017-04-14T14:03:02.050Z,200
2017-04-14T14:04:03.297Z,190
2017-04-14T14:05:04.593Z,195
2017-04-14T14:06:05.903Z,195
2017-04-14T14:07:07.159Z,200
2017-04-14T14:08:08.423Z,200
2017-04-14T14:09:09.660Z,195
2017-04-14T14:10:10.917Z,185
2017-04-14T14:11:12.170Z,170
2017-04-14T14:12:13.409Z,160
2017-04-14T14:13:14.714Z,160
2017-04-14T14:14:15.957Z,155
2017-04-14T14:15:17.196Z,160
2017-04-14T14:16:18.437Z,175
2017-04-14T14:17:19.698Z,190
2017-04-14T14:18:20.925Z,205
2017-04-14T14:19:22.193Z,215
2017-04-14T14:20:23.453Z,230
2017-04-14T14:21:24.684Z,225
2017-04-14T14:22:26.020Z,235
2017-04-14T14:23:27.280Z,235